createdAt,value
2018-12-04T00:00:21.305Z,100197.84
2018-12-04T00:03:01.851Z,100206.58
2018-12-04T00:05:48.753Z,100202.92
2018-12-04T00:08:36.112Z,100208.78
2018-12-04T00:11:17.055Z,100199.50
2018-12-04T00:13:57.356Z,100213.66
2018-12-04T00:16:36.972Z,100213.41
2018-12-04T00:19:18.053Z,100221.95
2018-12-04T00:24:59.910Z,100223.17
2018-12-04T00:27:39.983Z,100226.32
2018-12-04T00:30:22.898Z,100228.52
2018-12-04T00:33:02.199Z,100224.66
2018-12-04T00:35:42.991Z,100221.88
2018-12-04T00:38:32.281Z,100224.05
2018-12-04T00:41:13.846Z,100221.03
2018-12-04T00:43:53.886Z,100226.11
2018-12-04T00:46:34.470Z,100215.41
2018-12-04T00:49:14.412Z,100226.86
2018-12-04T00:51:54.642Z,100217.19
2018-12-04T00:54:36.363Z,100219.91
2018-12-04T00:57:16.894Z,100220.34
2018-12-04T00:59:56.571Z,100212.09
2018-12-04T01:02:36.307Z,100207.78
2018-12-04T01:05:26.387Z,100202.55
2018-12-04T01:08:05.128Z,100198.16
2018-12-04T01:10:44.178Z,100201.38
2018-12-04T01:13:23.165Z,100197.25
2018-12-04T01:16:03.163Z,100200.97
2018-12-04T01:18:41.883Z,100194.39
2018-12-04T01:21:20.932Z,100197.15
2018-12-04T01:23:59.328Z,100189.77
2018-12-04T01:26:38.048Z,100183.30
2018-12-04T01:29:16.976Z,100181.46
2018-12-04T01:31:56.118Z,100184.41
2018-12-04T01:34:35.072Z,100180.62
2018-12-04T01:37:15.000Z,100175.55
2018-12-04T01:39:54.650Z,100178.75
2018-12-04T01:42:35.168Z,100167.54
2018-12-04T01:45:14.768Z,100172.84
2018-12-04T01:47:55.022Z,100178.53
2018-12-04T01:50:37.371Z,100175.91
2018-12-04T01:53:17.595Z,100177.02
2018-12-04T01:56:15.407Z,100181.89
2018-12-04T01:58:54.792Z,100175.22
2018-12-04T02:01:42.725Z,100164.38
2018-12-04T02:04:24.649Z,100169.23
2018-12-04T02:07:05.889Z,100174.37
2018-12-04T02:09:44.813Z,100183.25
2018-12-04T02:12:30.323Z,100169.05
2018-12-04T02:15:12.182Z,100161.52
2018-12-04T02:17:55.345Z,100170.55
2018-12-04T02:20:34.463Z,100163.13
2018-12-04T02:23:14.493Z,100160.05
2018-12-04T02:25:53.519Z,100158.02
2018-12-04T02:28:36.592Z,100145.91
2018-12-04T02:31:25.943Z,100144.84
2018-12-04T02:34:08.080Z,100148.56
2018-12-04T02:36:48.440Z,100142.21
2018-12-04T02:39:30.663Z,100145.61
2018-12-04T02:42:10.833Z,100144.08
2018-12-04T02:44:54.426Z,100139.50
2018-12-04T02:47:38.719Z,100128.41
2018-12-04T02:50:20.894Z,100127.95
2018-12-04T02:53:00.592Z,100127.04
2018-12-04T02:55:42.575Z,100116.13
2018-12-04T02:58:22.812Z,100123.72
2018-12-04T03:01:02.656Z,100119.42
2018-12-04T03:03:43.058Z,100124.44
2018-12-04T03:06:28.204Z,100124.73
2018-12-04T03:09:13.291Z,100108.93
2018-12-04T03:14:51.708Z,100110.40
2018-12-04T03:17:31.016Z,100110.58
2018-12-04T03:20:10.886Z,100102.97
2018-12-04T03:22:50.188Z,100104.63
2018-12-04T03:25:30.254Z,100102.11
2018-12-04T03:28:10.331Z,100090.78
2018-12-04T03:30:53.244Z,100094.30
2018-12-04T03:33:48.365Z,100100.45
2018-12-04T03:36:29.856Z,100088.45
2018-12-04T03:39:11.426Z,100078.61
2018-12-04T03:42:00.653Z,100082.29
2018-12-04T03:45:14.216Z,100069.64
2018-12-04T03:47:59.917Z,100073.63
2018-12-04T03:50:40.004Z,100072.92
2018-12-04T03:53:20.415Z,100065.97
2018-12-04T03:59:21.023Z,100044.27
2018-12-04T04:01:59.933Z,100045.92
2018-12-04T04:04:39.009Z,100044.39
2018-12-04T04:07:18.081Z,100039.80
2018-12-04T04:09:57.497Z,100036.98
2018-12-04T04:12:37.872Z,100034.97
2018-12-04T04:15:16.853Z,100025.84
2018-12-04T04:17:55.902Z,100025.12
2018-12-04T04:20:36.142Z,100012.39
2018-12-04T04:23:16.283Z,100006.92
2018-12-04T04:25:56.387Z,100011.78
2018-12-04T04:28:36.968Z,100009.45
2018-12-04T04:31:16.031Z,99996.78
2018-12-04T04:33:55.037Z,99995.20
2018-12-04T04:36:33.969Z,99997.42
2018-12-04T04:39:14.926Z,99991.69
2018-12-04T04:41:53.821Z,99986.06
2018-12-04T04:44:44.648Z,99987.90
2018-12-04T04:47:24.017Z,99978.73
2018-12-04T04:50:02.805Z,99976.00
2018-12-04T04:52:41.545Z,99980.14
2018-12-04T04:55:21.083Z,99974.81
2018-12-04T04:57:59.580Z,99966.28
2018-12-04T05:00:39.183Z,99961.81
2018-12-04T05:03:18.080Z,99969.92
2018-12-04T05:05:56.923Z,99972.34
2018-12-04T05:08:35.725Z,99964.20
2018-12-04T05:11:14.758Z,99963.03
2018-12-04T05:13:53.897Z,99974.27
2018-12-04T05:16:32.690Z,99960.95
2018-12-04T05:19:11.627Z,99965.23
2018-12-04T05:21:50.295Z,99973.78
2018-12-04T05:24:29.129Z,99969.02
2018-12-04T05:27:07.502Z,99962.81
2018-12-04T05:29:46.237Z,99956.87
2018-12-04T05:32:25.102Z,99970.04
2018-12-04T05:35:06.579Z,99964.92
2018-12-04T05:37:51.017Z,99966.81
2018-12-04T05:40:29.982Z,99956.46
2018-12-04T05:43:08.644Z,99955.67
2018-12-04T05:45:48.284Z,99952.14
2018-12-04T05:48:27.802Z,99962.49
2018-12-04T05:51:12.846Z,99951.34
2018-12-04T05:53:51.568Z,99950.33
2018-12-04T05:56:31.031Z,99955.03
2018-12-04T05:59:10.420Z,99951.88
2018-12-04T06:01:49.439Z,99962.70
2018-12-04T06:04:27.936Z,99955.73
2018-12-04T06:07:06.763Z,99948.71
2018-12-04T06:09:46.947Z,99954.89
2018-12-04T06:12:30.398Z,99947.20
2018-12-04T06:15:17.510Z,99946.36
2018-12-04T06:22:08.694Z,99947.50
2018-12-04T06:24:50.167Z,99937.02
2018-12-04T06:27:43.701Z,99934.86
2018-12-04T06:34:21.385Z,99926.05
2018-12-04T06:40:57.166Z,99932.89
2018-12-04T06:43:36.841Z,99929.56
2018-12-04T06:46:15.991Z,99936.23
2018-12-04T06:48:55.349Z,99941.55
2018-12-04T06:51:37.504Z,99940.72
2018-12-04T06:57:21.364Z,99940.05
2018-12-04T07:00:10.958Z,99941.02
2018-12-04T07:02:52.457Z,99942.39
2018-12-04T07:05:32.379Z,99943.04
2018-12-04T07:08:17.377Z,99948.89
2018-12-04T07:10:56.457Z,99942.75
2018-12-04T07:13:35.416Z,99950.91
2018-12-04T07:16:14.648Z,99944.58
2018-12-04T07:18:54.009Z,99949.91
2018-12-04T07:21:33.128Z,99944.03
2018-12-04T07:24:12.284Z,99957.84
2018-12-04T07:26:51.391Z,99953.38
2018-12-04T07:29:30.865Z,99959.88
2018-12-04T07:32:09.943Z,99966.40
2018-12-04T07:34:50.799Z,99965.22
2018-12-04T07:37:29.748Z,99975.20
2018-12-04T07:40:09.667Z,99972.04
2018-12-04T07:42:49.089Z,99978.70
2018-12-04T07:45:28.936Z,99977.03
2018-12-04T07:48:08.158Z,99975.70
2018-12-04T07:50:47.407Z,99972.38
2018-12-04T07:53:27.753Z,99984.53
2018-12-04T07:56:07.533Z,99984.05
2018-12-04T07:59:27.716Z,99981.38
2018-12-04T08:02:11.456Z,99989.02
2018-12-04T08:07:40.162Z,100006.69
2018-12-04T08:10:27.793Z,100009.53
2018-12-04T08:13:07.645Z,100008.69
2018-12-04T08:15:49.439Z,100013.02
2018-12-04T08:18:29.455Z,100014.00
2018-12-04T08:21:12.205Z,100023.86
2018-12-04T08:23:53.197Z,100015.84
2018-12-04T08:29:31.777Z,100022.84
2018-12-04T08:32:12.180Z,100024.52
2018-12-04T08:34:55.585Z,100028.33
2018-12-04T08:37:35.670Z,100030.15
2018-12-04T08:40:16.120Z,100038.00
2018-12-04T08:42:58.902Z,100039.49
2018-12-04T08:45:39.270Z,100041.28
2018-12-04T08:48:19.566Z,100042.48
2018-12-04T08:51:01.872Z,100041.00
2018-12-04T08:53:44.178Z,100045.48
2018-12-04T08:56:23.702Z,100047.33
2018-12-04T08:59:02.736Z,100051.48
2018-12-04T09:01:41.743Z,100055.64
2018-12-04T09:04:21.082Z,100063.13
2018-12-04T09:07:00.901Z,100066.80
2018-12-04T09:09:41.293Z,100052.98
2018-12-04T09:12:21.852Z,100059.27
2018-12-04T09:15:01.750Z,100061.14
2018-12-04T09:17:41.119Z,100061.31
2018-12-04T09:20:20.460Z,100062.09
2018-12-04T09:22:59.840Z,100064.09
2018-12-04T09:25:38.866Z,100076.44
2018-12-04T09:28:19.112Z,100081.11
2018-12-04T09:30:58.804Z,100082.74
2018-12-04T09:33:38.891Z,100089.90
2018-12-04T09:36:18.430Z,100096.88
2018-12-04T09:38:59.263Z,100095.91
2018-12-04T09:41:40.927Z,100092.08
2018-12-04T09:44:25.267Z,100092.23
2018-12-04T10:00:44.833Z,100116.41
2018-12-04T10:06:38.680Z,100124.56
2018-12-04T10:09:28.109Z,100127.80
2018-12-04T10:12:18.800Z,100130.16
2018-12-04T10:15:05.641Z,100135.66
2018-12-04T10:18:01.056Z,100149.56
2018-12-04T10:20:46.926Z,100150.90
2018-12-04T10:26:27.762Z,100165.28
2018-12-04T10:29:12.314Z,100168.14
2018-12-04T10:31:56.501Z,100172.55
2018-12-04T10:34:38.969Z,100180.00
2018-12-04T10:37:25.606Z,100182.30
2018-12-04T10:40:06.881Z,100191.08
2018-12-04T10:42:58.056Z,100194.84
2018-12-04T10:45:47.367Z,100192.68
2018-12-04T10:48:28.173Z,100198.75
2018-12-04T10:51:08.688Z,100200.88
2018-12-04T10:53:48.841Z,100205.95
2018-12-04T10:56:32.363Z,100200.39
2018-12-04T10:59:14.476Z,100201.98
2018-12-04T11:02:00.120Z,100206.78
2018-12-04T11:07:38.577Z,100210.40
2018-12-04T11:13:25.866Z,100215.62
2018-12-04T11:16:12.235Z,100214.78
2018-12-04T11:18:52.390Z,100232.04
2018-12-04T11:21:34.724Z,100233.73
2018-12-04T11:24:19.867Z,100241.80
2018-12-04T11:27:02.738Z,100242.43
2018-12-04T11:30:01.176Z,100247.80
2018-12-04T11:32:42.095Z,100249.37
2018-12-04T11:35:24.614Z,100256.17
2018-12-04T11:38:07.720Z,100254.32
2018-12-04T11:40:47.983Z,100252.19
2018-12-04T11:43:31.387Z,100256.12
2018-12-04T11:46:11.974Z,100259.55
2018-12-04T11:48:53.881Z,100260.74
2018-12-04T11:51:36.934Z,100265.98
2018-12-04T11:54:20.616Z,100261.44
2018-12-04T11:57:01.580Z,100263.55
2018-12-04T11:59:42.944Z,100267.27
2018-12-04T12:02:23.616Z,100272.75
2018-12-04T12:05:05.634Z,100279.25
2018-12-04T12:07:45.711Z,100279.56
2018-12-04T12:10:27.245Z,100275.41
2018-12-04T12:13:09.465Z,100277.33
2018-12-04T12:15:53.813Z,100288.66
2018-12-04T12:18:36.225Z,100289.00
2018-12-04T12:21:17.620Z,100286.66
2018-12-04T12:24:01.813Z,100291.33
2018-12-04T12:26:47.920Z,100292.48
2018-12-04T12:29:29.248Z,100281.88
2018-12-04T12:32:11.535Z,100292.83
2018-12-04T12:34:52.397Z,100287.70
2018-12-04T12:37:36.294Z,100290.00
2018-12-04T12:40:21.358Z,100290.08
2018-12-04T12:43:03.247Z,100294.39
2018-12-04T12:45:47.165Z,100296.08
2018-12-04T12:48:28.029Z,100302.61
2018-12-04T12:51:07.706Z,100297.94
2018-12-04T12:53:48.057Z,100296.83
2018-12-04T12:56:28.953Z,100296.80
2018-12-04T12:59:09.085Z,100296.71
2018-12-04T13:01:50.079Z,100295.03
2018-12-04T13:04:30.902Z,100299.11
2018-12-04T13:07:12.235Z,100306.34
2018-12-04T13:12:56.029Z,100304.59
2018-12-04T13:15:39.062Z,100301.50
2018-12-04T13:18:23.179Z,100303.81
2018-12-04T13:21:06.265Z,100296.94
2018-12-04T13:23:51.607Z,100306.56
2018-12-04T13:26:39.865Z,100297.69
2018-12-04T13:29:26.974Z,100305.30
2018-12-04T13:32:09.393Z,100305.20
2018-12-04T13:34:54.032Z,100303.39
2018-12-04T13:37:39.729Z,100304.98
2018-12-04T13:40:21.430Z,100310.07
2018-12-04T13:43:02.401Z,100310.16
2018-12-04T13:45:42.806Z,100309.54
2018-12-04T13:48:26.973Z,100315.02
2018-12-04T13:51:10.215Z,100314.27
2018-12-04T13:53:56.728Z,100311.52
2018-12-04T13:59:28.369Z,100315.16
2018-12-04T14:02:15.724Z,100325.63
2018-12-04T14:05:02.523Z,100326.08
2018-12-04T14:07:46.564Z,100325.05
2018-12-04T14:10:29.196Z,100338.59
2018-12-04T14:13:13.685Z,100337.89
2018-12-04T14:15:58.789Z,100334.63
2018-12-04T14:18:41.879Z,100335.16
2018-12-04T14:21:27.211Z,100328.41
2018-12-04T14:24:11.536Z,100334.54
2018-12-04T14:26:54.145Z,100338.53
2018-12-04T14:29:44.879Z,100336.64
2018-12-04T14:32:30.410Z,100345.00
2018-12-04T14:35:14.487Z,100347.45
2018-12-04T14:37:58.926Z,100342.34
2018-12-04T14:40:44.914Z,100341.23
2018-12-04T14:43:29.144Z,100344.29
2018-12-04T14:46:13.667Z,100339.44
2018-12-04T14:48:58.076Z,100332.45
2018-12-04T14:51:39.625Z,100333.28
2018-12-04T14:54:20.910Z,100333.62
2018-12-04T14:57:02.100Z,100335.04
2018-12-04T14:59:43.866Z,100342.98
2018-12-04T15:02:25.397Z,100341.59
2018-12-04T15:05:06.851Z,100337.84
2018-12-04T15:07:49.061Z,100339.30
2018-12-04T15:10:31.674Z,100338.94
2018-12-04T15:13:12.840Z,100342.92
2018-12-04T15:15:53.794Z,100350.88
2018-12-04T15:18:36.861Z,100345.98
2018-12-04T15:21:17.591Z,100351.21
2018-12-04T15:23:57.363Z,100345.84
2018-12-04T15:26:39.976Z,100343.10
2018-12-04T15:29:23.075Z,100353.33
2018-12-04T15:32:05.595Z,100350.25
2018-12-04T15:34:46.769Z,100352.61
2018-12-04T15:37:28.439Z,100347.67
2018-12-04T15:40:13.592Z,100358.69
2018-12-04T15:42:54.497Z,100361.06
2018-12-04T15:45:36.358Z,100364.56
2018-12-04T15:48:17.214Z,100364.16
2018-12-04T15:51:00.088Z,100374.81
2018-12-04T15:53:42.175Z,100380.20
2018-12-04T15:56:23.970Z,100380.91
2018-12-04T15:59:04.582Z,100386.05
2018-12-04T16:01:45.114Z,100384.08
2018-12-04T16:04:25.614Z,100377.71
2018-12-04T16:07:05.674Z,100380.23
2018-12-04T16:09:45.437Z,100390.24
2018-12-04T16:12:27.138Z,100396.59
2018-12-04T16:15:07.423Z,100393.06
2018-12-04T16:17:48.184Z,100383.72
2018-12-04T16:20:28.138Z,100386.77
2018-12-04T16:23:08.986Z,100392.58
2018-12-04T16:25:48.673Z,100387.50
2018-12-04T16:28:29.331Z,100398.08
2018-12-04T16:31:10.222Z,100402.33
2018-12-04T16:33:58.232Z,100416.27
2018-12-04T16:36:40.632Z,100414.36
2018-12-04T16:39:21.462Z,100417.84
2018-12-04T16:42:01.544Z,100423.14
2018-12-04T16:44:44.044Z,100415.19
2018-12-04T16:47:23.396Z,100417.61
2018-12-04T16:50:03.783Z,100419.76
2018-12-04T16:52:43.958Z,100422.58
2018-12-04T16:55:24.091Z,100420.13
2018-12-04T16:58:04.680Z,100423.34
2018-12-04T17:00:45.866Z,100429.28
2018-12-04T17:03:25.626Z,100414.84
2018-12-04T17:06:05.016Z,100423.98
2018-12-04T17:08:48.399Z,100425.74
2018-12-04T17:11:27.344Z,100422.31
2018-12-04T17:14:06.539Z,100421.81
2018-12-04T17:16:49.559Z,100426.28
2018-12-04T17:19:28.649Z,100426.94
2018-12-04T17:22:07.813Z,100421.57
2018-12-04T17:24:48.342Z,100426.51
2018-12-04T17:27:27.408Z,100430.73
2018-12-04T17:30:06.810Z,100433.45
2018-12-04T17:32:46.483Z,100429.02
2018-12-04T17:35:26.853Z,100427.35
2018-12-04T17:38:06.040Z,100447.52
2018-12-04T17:40:45.243Z,100450.53
2018-12-04T17:43:24.266Z,100457.23
2018-12-04T17:46:03.065Z,100465.31
2018-12-04T17:48:42.510Z,100464.25
2018-12-04T17:51:21.926Z,100462.35
2018-12-04T17:54:00.906Z,100468.59
2018-12-04T17:56:41.595Z,100453.83
2018-12-04T17:59:20.671Z,100455.95
2018-12-04T18:01:59.615Z,100458.77
2018-12-04T18:04:38.696Z,100453.91
2018-12-04T18:07:17.522Z,100446.86
2018-12-04T18:09:56.362Z,100446.25
2018-12-04T18:12:35.181Z,100456.16
2018-12-04T18:15:14.590Z,100448.66
2018-12-04T18:17:53.899Z,100451.42
2018-12-04T18:20:34.867Z,100450.45
2018-12-04T18:23:13.620Z,100449.55
2018-12-04T18:25:52.689Z,100455.91
2018-12-04T18:28:32.605Z,100444.36
2018-12-04T18:31:11.512Z,100442.05
2018-12-04T18:33:50.350Z,100446.13
2018-12-04T18:36:29.850Z,100452.51
2018-12-04T18:39:12.699Z,100444.36
2018-12-04T18:41:52.028Z,100456.64
2018-12-04T18:44:32.463Z,100448.85
2018-12-04T18:47:11.830Z,100449.98
2018-12-04T18:49:51.158Z,100454.47
2018-12-04T18:52:30.259Z,100449.91
2018-12-04T18:55:13.593Z,100449.19
2018-12-04T18:57:53.186Z,100443.28
2018-12-04T19:00:32.728Z,100443.48
2018-12-04T19:03:11.895Z,100450.47
2018-12-04T19:05:52.158Z,100438.59
2018-12-04T19:08:37.159Z,100457.41
2018-12-04T19:11:16.243Z,100454.16
2018-12-04T19:13:55.101Z,100456.78
2018-12-04T19:16:34.101Z,100459.29
2018-12-04T19:21:58.020Z,100461.48
2018-12-04T19:24:37.740Z,100459.00
2018-12-04T19:30:08.821Z,100469.62
2018-12-04T19:32:48.050Z,100465.11
2018-12-04T19:35:27.333Z,100458.20
2018-12-04T19:38:15.003Z,100456.61
2018-12-04T19:40:56.000Z,100448.71
2018-12-04T19:43:36.426Z,100463.07
2018-12-04T19:46:15.363Z,100451.62
2018-12-04T19:48:54.734Z,100464.09
2018-12-04T19:51:33.925Z,100455.64
2018-12-04T19:54:13.773Z,100464.20
2018-12-04T19:56:52.556Z,100464.19
2018-12-04T19:59:31.300Z,100456.52
2018-12-04T20:02:11.393Z,100466.52
2018-12-04T20:04:51.750Z,100462.92
2018-12-04T20:07:30.846Z,100464.27
2018-12-04T20:10:11.136Z,100466.81
2018-12-04T20:12:51.499Z,100454.98
2018-12-04T20:15:30.681Z,100449.53
2018-12-04T20:18:10.085Z,100451.19
2018-12-04T20:20:50.993Z,100437.03
2018-12-04T20:23:29.933Z,100455.50
2018-12-04T20:26:08.819Z,100460.13
2018-12-04T20:28:47.552Z,100450.02
2018-12-04T20:31:27.337Z,100448.02
2018-12-04T20:34:06.249Z,100452.77
2018-12-04T20:36:46.108Z,100448.20
2018-12-04T20:39:25.265Z,100455.05
2018-12-04T20:42:10.305Z,100459.56
2018-12-04T20:44:53.997Z,100452.44
2018-12-04T20:47:47.147Z,100447.44
2018-12-04T20:50:26.894Z,100452.89
2018-12-04T20:53:05.768Z,100450.37
2018-12-04T20:55:44.629Z,100451.64
2018-12-04T20:58:23.883Z,100451.27
2018-12-04T21:01:03.863Z,100460.52
2018-12-04T21:03:42.473Z,100463.80
2018-12-04T21:06:20.844Z,100460.33
2018-12-04T21:09:01.460Z,100454.98
2018-12-04T21:11:40.253Z,100463.05
2018-12-04T21:14:20.141Z,100474.04
2018-12-04T21:16:59.932Z,100476.64
2018-12-04T21:19:38.682Z,100482.27
2018-12-04T21:22:18.033Z,100483.47
2018-12-04T21:24:56.951Z,100491.39
2018-12-04T21:27:39.177Z,100488.63
2018-12-04T21:30:23.388Z,100490.56
2018-12-04T21:33:06.555Z,100499.11
2018-12-04T21:35:49.825Z,100502.86
2018-12-04T21:38:33.861Z,100503.08
2018-12-04T21:41:16.236Z,100504.41
2018-12-04T21:45:00.181Z,100510.38
2018-12-04T21:47:44.399Z,100512.06
2018-12-04T21:50:23.227Z,100505.98
2018-12-04T21:53:03.170Z,100524.78
2018-12-04T21:55:45.246Z,100521.63
2018-12-04T21:58:23.920Z,100511.19
2018-12-04T22:01:02.398Z,100518.26
2018-12-04T22:04:05.505Z,100521.05
2018-12-04T22:06:48.660Z,100522.89
2018-12-04T22:09:40.048Z,100519.83
2018-12-04T22:12:24.474Z,100516.28
2018-12-04T22:15:02.963Z,100527.69
2018-12-04T22:17:41.828Z,100516.61
2018-12-04T22:20:20.456Z,100512.18
2018-12-04T22:22:59.371Z,100511.23
2018-12-04T22:25:37.957Z,100506.53
2018-12-04T22:28:16.789Z,100499.71
2018-12-04T22:30:56.106Z,100506.31
2018-12-04T22:33:34.691Z,100511.59
2018-12-04T22:36:14.489Z,100512.66
2018-12-04T22:38:53.326Z,100517.30
2018-12-04T22:41:34.062Z,100505.09
2018-12-04T22:44:14.562Z,100512.53
2018-12-04T22:46:55.153Z,100504.50
2018-12-04T22:49:35.694Z,100499.44
2018-12-04T22:52:15.827Z,100506.55
2018-12-04T22:54:55.589Z,100513.95
2018-12-04T22:57:35.534Z,100516.47
2018-12-04T23:00:20.926Z,100516.25
2018-12-04T23:02:59.713Z,100529.30
2018-12-04T23:05:38.761Z,100516.00
2018-12-04T23:08:17.588Z,100534.47
2018-12-04T23:10:57.165Z,100538.20
2018-12-04T23:13:36.588Z,100545.27
2018-12-04T23:16:15.751Z,100543.95
2018-12-04T23:18:54.635Z,100544.80
2018-12-04T23:21:33.404Z,100540.23
2018-12-04T23:24:12.902Z,100548.17
2018-12-04T23:26:52.272Z,100543.25
2018-12-04T23:29:30.707Z,100542.88
2018-12-04T23:32:09.243Z,100556.55
2018-12-04T23:34:48.410Z,100558.59
2018-12-04T23:37:27.206Z,100567.39
2018-12-04T23:40:06.209Z,100581.38
2018-12-04T23:42:45.633Z,100572.19
2018-12-04T23:45:25.125Z,100577.89
2018-12-04T23:48:03.842Z,100583.41
2018-12-04T23:50:50.245Z,100581.89
2018-12-04T23:53:29.430Z,100596.01
2018-12-04T23:56:09.106Z,100591.47
2018-12-04T23:58:48.674Z,100593.23
